Time;durP1;ratioP1;P1;durP2;ratioP2;P2;SDS_P1;SDS_P2;PMS_P1;PMS_P2;Temp;Humidity;BMP_temperature;BMP_pressure;BME280_temperature;BME280_humidity;BME280_pressure;Samples;Min_cycle;Max_cycle;Signal;HPM_P1;HPM_P2
2023/01/10 00:00:24;;;;;;;75.25;31.35;;;;;;;9.56;86.98;100561.81;5112140;28;20064;-91
2023/01/10 00:02:50;;;;;;;65.90;31.02;;;;;;;9.60;87.42;100563.28;5112587;28;20027;-91
2023/01/10 00:05:16;;;;;;;65.47;31.90;;;;;;;9.55;87.67;100557.41;5112551;28;20024;-90
2023/01/10 00:07:42;;;;;;;62.70;33.70;;;;;;;9.57;88.16;100546.56;5112059;28;20031;-90
2023/01/10 00:10:08;;;;;;;67.32;35.70;;;;;;;9.61;88.29;100543.50;5112380;28;20035;-90
2023/01/10 00:15:17;;;;;;;70.13;33.97;;;;;;;9.61;89.19;100538.16;5111544;28;20100;-91
2023/01/10 00:17:43;;;;;;;68.05;33.95;;;;;;;9.62;89.50;100533.63;5111420;28;20470;-90
2023/01/10 00:20:09;;;;;;;69.07;36.83;;;;;;;9.76;89.53;100536.94;5093665;28;20028;-91
2023/01/10 00:22:35;;;;;;;67.90;36.42;;;;;;;9.79;89.39;100542.06;5111506;28;20494;-89
2023/01/10 00:25:00;;;;;;;81.32;36.65;;;;;;;9.84;89.17;100526.44;5111741;28;20028;-90
2023/01/10 00:27:25;;;;;;;77.05;35.85;;;;;;;10.02;88.81;100534.00;5112079;28;20132;-89
2023/01/10 00:29:51;;;;;;;76.25;36.78;;;;;;;10.00;88.22;100503.72;5093197;28;20111;-89
2023/01/10 00:32:18;;;;;;;67.72;32.35;;;;;;;10.17;87.20;100527.41;5112613;28;20028;-91
2023/01/10 00:34:43;;;;;;;64.97;35.10;;;;;;;10.22;86.47;100522.50;5093025;28;20031;-89
2023/01/10 00:37:09;;;;;;;68.90;34.92;;;;;;;10.22;86.39;100535.94;5112862;28;20035;-88
2023/01/10 00:39:34;;;;;;;69.25;36.35;;;;;;;10.04;88.07;100514.09;5111297;28;20043;-90
2023/01/10 00:44:45;;;;;;;82.20;37.35;;;;;;;9.95;88.84;100511.28;5066537;28;20567;-90
2023/01/10 00:47:12;;;;;;;81.20;36.53;;;;;;;9.93;90.28;100527.53;5112139;28;20045;-89
2023/01/10 00:49:37;;;;;;;76.38;36.75;;;;;;;10.02;91.34;100521.44;5114997;28;20489;-88
2023/01/10 00:52:03;;;;;;;90.18;39.58;;;;;;;9.88;92.00;100499.34;5111161;28;20040;-89
2023/01/10 00:54:28;;;;;;;79.68;39.10;;;;;;;9.87;92.51;100500.31;5111207;28;20220;-89
2023/01/10 00:56:54;;;;;;;73.90;38.40;;;;;;;9.95;93.70;100508.59;5111383;28;20535;-89
2023/01/10 00:59:19;;;;;;;77.97;40.10;;;;;;;9.95;93.96;100500.53;5111010;28;20036;-90
2023/01/10 01:01:45;;;;;;;71.63;38.75;;;;;;;10.00;94.67;100495.66;5111599;28;20024;-90
2023/01/10 01:04:10;;;;;;;74.40;37.50;;;;;;;9.91;94.67;100477.59;5111062;28;20020;-89
2023/01/10 01:06:36;;;;;;;79.68;37.67;;;;;;;9.98;95.19;100493.09;5111379;28;20034;-91
2023/01/10 01:09:01;;;;;;;69.82;37.47;;;;;;;9.97;95.50;100477.09;5111731;28;20030;-89
2023/01/10 01:11:26;;;;;;;95.72;41.83;;;;;;;9.90;95.01;100483.94;5111830;28;20027;-88
2023/01/10 01:13:52;;;;;;;77.65;37.15;;;;;;;10.02;95.38;100485.63;5112047;28;20475;-90
2023/01/10 01:16:17;;;;;;;79.68;38.25;;;;;;;10.01;95.56;100487.47;5111336;28;20028;-90
2023/01/10 01:18:43;;;;;;;64.60;35.25;;;;;;;9.91;95.61;100475.75;5111501;28;20479;-89
2023/01/10 01:21:08;;;;;;;88.32;39.35;;;;;;;9.94;96.03;100488.94;5093100;28;20032;-88
2023/01/10 01:23:34;;;;;;;90.88;39.63;;;;;;;9.93;96.15;100484.56;5093387;28;20087;-90
2023/01/10 01:26:00;;;;;;;88.50;39.78;;;;;;;9.93;96.53;100478.31;5093410;28;20066;-88
2023/01/10 01:28:26;;;;;;;91.32;39.75;;;;;;;9.94;96.49;100455.88;5093412;28;20023;-90
2023/01/10 01:30:51;;;;;;;77.53;38.92;;;;;;;10.04;96.87;100470.22;5113053;28;20024;-87
2023/01/10 01:33:18;;;;;;;101.45;40.55;;;;;;;10.12;96.67;100471.31;5103501;28;20027;-88
2023/01/10 01:35:45;;;;;;;81.45;39.17;;;;;;;10.13;96.38;100464.09;5132320;28;20058;-89
2023/01/10 01:38:10;;;;;;;84.20;39.30;;;;;;;10.07;96.14;100438.59;5133995;28;20031;-88
2023/01/10 01:40:37;;;;;;;78.10;37.00;;;;;;;10.12;96.13;100439.06;5135911;28;20015;-89
2023/01/10 01:43:04;;;;;;;86.65;39.58;;;;;;;10.18;95.80;100451.19;5135794;28;20080;-89
2023/01/10 01:45:36;;;;;;;71.70;36.47;;;;;;;10.16;96.51;100459.38;5121332;28;20035;-88
2023/01/10 01:48:12;;;;;;;89.18;40.70;;;;;;;10.16;96.51;100463.88;5112369;28;20502;-90
2023/01/10 01:50:52;;;;;;;80.68;38.17;;;;;;;10.24;96.63;100466.81;5110547;28;20106;-90
2023/01/10 01:53:26;;;;;;;95.15;39.38;;;;;;;10.28;96.68;100465.56;5110556;28;20031;-89
2023/01/10 01:55:55;;;;;;;79.85;36.50;;;;;;;10.36;96.39;100457.72;5110155;28;20034;-88
2023/01/10 01:58:48;;;;;;;85.43;37.13;;;;;;;10.41;96.39;100451.97;5111500;28;20035;-89
2023/01/10 02:01:15;;;;;;;88.25;37.47;;;;;;;10.38;95.57;100453.06;5112751;28;20040;-90
2023/01/10 02:03:44;;;;;;;78.15;34.97;;;;;;;10.43;95.81;100450.84;5110680;28;20035;-89
2023/01/10 02:06:11;;;;;;;71.50;36.15;;;;;;;10.54;95.15;100458.88;5113463;28;20027;-90
2023/01/10 02:08:44;;;;;;;75.88;35.33;;;;;;;10.56;95.06;100453.38;5078286;28;20097;-90
2023/01/10 02:11:09;;;;;;;71.70;34.47;;;;;;;10.56;93.95;100456.06;5096772;28;20391;-89
2023/01/10 02:13:41;;;;;;;72.40;35.35;;;;;;;10.55;94.54;100449.81;5113846;28;20027;-90
2023/01/10 02:16:08;;;;;;;89.70;35.08;;;;;;;10.59;94.49;100448.59;5114225;28;20456;-88
2023/01/10 02:18:34;;;;;;;75.47;37.63;;;;;;;10.61;93.86;100445.78;5095604;28;20604;-90
2023/01/10 02:21:08;;;;;;;80.80;33.97;;;;;;;10.64;94.24;100437.44;5114132;28;20056;-90
2023/01/10 02:24:06;;;;;;;80.03;34.35;;;;;;;10.60;94.52;100438.69;5114894;28;20625;-89
2023/01/10 02:27:03;;;;;;;94.40;34.30;;;;;;;10.59;94.52;100440.53;5103003;28;20023;-90
2023/01/10 02:30:01;;;;;;;88.78;34.55;;;;;;;10.60;95.20;100434.16;5116102;28;20057;-89
2023/01/10 02:32:44;;;;;;;92.43;34.45;;;;;;;10.50;95.27;100419.78;5095427;28;20567;-88
2023/01/10 02:35:09;;;;;;;67.40;34.13;;;;;;;10.56;95.47;100438.09;5113492;28;20404;-88
2023/01/10 02:37:59;;;;;;;74.18;33.00;;;;;;;10.53;95.48;100427.59;5113595;28;20031;-91
2023/01/10 02:40:42;;;;;;;80.70;34.15;;;;;;;10.46;96.38;100421.00;5113369;28;20032;-89
2023/01/10 02:43:10;;;;;;;;;;;;;;;10.50;95.71;100446.66;5114097;28;20102;-87
2023/01/10 02:45:48;;;;;;;76.03;34.63;;;;;;;10.50;95.49;100441.28;5113465;28;19916;-90
2023/01/10 02:48:16;;;;;;;79.45;33.72;;;;;;;10.45;95.64;100437.28;5114183;28;20045;-89
2023/01/10 02:50:42;;;;;;;80.03;35.20;;;;;;;10.48;95.37;100429.81;5113170;28;20541;-89
2023/01/10 02:53:31;;;;;;;75.32;33.28;;;;;;;10.47;95.39;100432.63;5113311;28;20088;-89
2023/01/10 02:56:20;;;;;;;64.55;29.88;;;;;;;10.51;95.20;100444.84;5113214;28;20057;-90
2023/01/10 02:59:03;;;;;;;76.15;34.25;;;;;;;10.54;94.45;100431.13;5011849;28;20037;-89
2023/01/10 03:01:44;;;;;;;81.03;32.35;;;;;;;10.60;94.44;100431.47;5010863;28;20414;-90
2023/01/10 03:04:47;;;;;;;70.38;32.83;;;;;;;10.53;94.79;100424.91;5009869;28;20522;-89
2023/01/10 03:07:30;;;;;;;69.22;31.83;;;;;;;10.58;94.36;100428.03;5010882;28;20057;-90
2023/01/10 03:10:17;;;;;;;63.38;31.67;;;;;;;10.59;94.76;100429.75;5010758;28;20065;-88
2023/01/10 03:13:20;;;;;;;65.95;32.45;;;;;;;10.60;94.78;100430.63;5010528;28;20091;-89
2023/01/10 03:15:48;;;;;;;93.47;34.17;;;;;;;10.55;94.83;100425.63;5009979;28;20051;-89
2023/01/10 03:18:20;;;;;;;84.88;35.80;;;;;;;10.52;94.58;100423.19;5009248;28;20045;-90
2023/01/10 03:20:48;;;;;;;89.38;34.05;;;;;;;10.56;94.89;100415.72;5009671;28;20034;-90
2023/01/10 03:23:15;;;;;;;78.20;32.53;;;;;;;10.59;94.90;100412.75;5009866;28;20045;-89
2023/01/10 03:25:43;;;;;;;85.38;35.30;;;;;;;10.63;95.00;100420.47;5009839;28;20037;-90
2023/01/10 03:28:14;;;;;;;75.55;34.40;;;;;;;10.70;94.53;100416.25;4993641;28;20117;-90
2023/01/10 03:30:43;;;;;;;76.15;33.95;;;;;;;10.76;93.96;100407.66;4993652;28;20030;-90
2023/01/10 03:33:10;;;;;;;91.78;37.35;;;;;;;10.72;94.06;100416.97;4993638;28;20096;-90
2023/01/10 03:35:43;;;;;;;76.18;37.53;;;;;;;10.70;94.22;100401.97;5051383;28;20054;-90
2023/01/10 03:38:24;;;;;;;84.80;34.22;;;;;;;10.83;94.19;100419.59;5112311;28;20406;-91
2023/01/10 03:41:00;;;;;;;86.72;35.63;;;;;;;10.81;94.05;100408.13;5112411;28;20030;-89
2023/01/10 03:46:35;;;;;;;89.38;37.28;;;;;;;10.68;93.42;100406.59;5112481;28;20133;-90
2023/01/10 03:49:05;;;;;;;70.05;36.55;;;;;;;10.70;93.13;100402.78;5093985;28;20028;-91
2023/01/10 03:51:31;;;;;;;80.13;36.60;;;;;;;10.63;92.68;100395.41;5112143;28;20687;-91
2023/01/10 03:54:01;;;;;;;85.03;35.30;;;;;;;10.68;92.43;100403.91;5112128;28;20028;-90
2023/01/10 03:56:26;;;;;;;81.55;35.42;;;;;;;10.62;92.68;100396.38;5111831;28;20039;-90
2023/01/10 03:58:52;;;;;;;85.53;37.15;;;;;;;10.61;92.09;100382.06;5093833;28;20042;-89
2023/01/10 04:01:18;;;;;;;87.03;36.15;;;;;;;10.74;92.57;100401.56;5111995;28;20020;-89
2023/01/10 04:03:43;;;;;;;80.47;34.47;;;;;;;10.69;92.45;100398.41;5111951;28;20402;-91
2023/01/10 04:06:09;;;;;;;75.40;34.00;;;;;;;10.65;92.21;100396.97;5112052;28;20058;-90
2023/01/10 04:08:34;;;;;;;84.72;36.60;;;;;;;10.70;92.62;100389.34;5112097;28;20053;-88
2023/01/10 04:11:00;;;;;;;76.28;33.63;;;;;;;10.69;92.54;100373.34;5096033;28;20134;-90
2023/01/10 04:13:26;;;;;;;95.88;38.60;;;;;;;10.78;92.77;100381.50;5113049;28;20035;-90
2023/01/10 04:15:51;;;;;;;85.80;35.67;;;;;;;10.76;93.04;100382.63;5112005;28;20409;-90
2023/01/10 04:18:18;;;;;;;86.03;37.15;;;;;;;10.65;93.17;100364.69;5116499;28;20051;-89
2023/01/10 04:20:43;;;;;;;88.53;40.22;;;;;;;10.80;93.72;100374.13;5115929;28;20106;-88
2023/01/10 04:23:09;;;;;;;77.88;38.55;;;;;;;10.86;93.63;100375.44;5101034;28;20114;-90
2023/01/10 04:25:34;;;;;;;93.07;38.95;;;;;;;10.81;93.21;100359.72;5095624;28;20096;-88
2023/01/10 04:28:00;;;;;;;76.78;39.63;;;;;;;10.79;93.40;100366.22;5092778;28;20023;-89
2023/01/10 04:30:26;;;;;;;90.78;41.58;;;;;;;10.75;93.47;100362.94;5092934;28;20034;-90
2023/01/10 04:32:51;;;;;;;94.55;41.85;;;;;;;10.75;93.75;100370.13;5111113;28;20034;-90
2023/01/10 04:35:17;;;;;;;80.13;39.67;;;;;;;10.66;94.54;100363.72;5111600;28;20030;-90
2023/01/10 04:37:42;;;;;;;93.40;42.13;;;;;;;10.65;94.90;100372.75;5112124;28;20077;-90
2023/01/10 04:40:08;;;;;;;89.93;42.15;;;;;;;10.70;95.41;100367.81;5112365;28;20019;-89
2023/01/10 04:42:34;;;;;;;83.68;39.38;;;;;;;10.73;95.49;100367.56;5111103;28;20084;-91
2023/01/10 04:44:59;;;;;;;98.88;42.78;;;;;;;10.77;95.72;100363.63;5111569;28;20020;-90
2023/01/10 04:47:25;;;;;;;101.57;41.65;;;;;;;10.79;95.67;100360.81;5114366;28;20110;-90
2023/01/10 04:49:50;;;;;;;103.28;39.03;;;;;;;10.77;94.83;100369.00;5117103;28;20019;-90
2023/01/10 04:52:15;;;;;;;89.75;43.90;;;;;;;10.78;94.97;100364.50;5113086;28;20468;-88
2023/01/10 04:54:41;;;;;;;101.13;43.85;;;;;;;10.79;94.62;100364.34;5113019;28;20447;-89
2023/01/10 04:57:06;;;;;;;104.50;41.83;;;;;;;10.72;94.03;100349.75;5094182;28;20407;-88
2023/01/10 04:59:32;;;;;;;84.53;43.10;;;;;;;10.69;94.53;100349.16;5114946;28;20089;-88
2023/01/10 05:01:57;;;;;;;87.68;40.72;;;;;;;10.62;93.90;100337.22;5095661;28;20031;-90
2023/01/10 05:04:23;;;;;;;79.95;40.10;;;;;;;10.74;93.29;100363.03;5096273;28;20024;-88
2023/01/10 05:06:49;;;;;;;92.82;37.42;;;;;;;10.63;92.84;100353.22;5114094;28;20043;-90
2023/01/10 05:09:14;;;;;;;93.93;36.88;;;;;;;10.74;92.24;100366.59;5114279;28;20019;-89
2023/01/10 05:11:40;;;;;;;71.63;34.55;;;;;;;10.64;91.42;100368.34;5114454;28;20031;-91
2023/01/10 05:14:05;;;;;;;61.90;31.40;;;;;;;10.64;90.60;100354.91;5095747;28;20032;-88
2023/01/10 05:16:31;;;;;;;63.05;30.30;;;;;;;10.72;89.47;100355.13;5096537;28;20406;-89
2023/01/10 05:18:56;;;;;;;70.88;31.58;;;;;;;10.69;88.51;100358.06;5114898;28;20489;-90
2023/01/10 05:21:22;;;;;;;81.43;31.73;;;;;;;10.69;88.63;100362.59;5100640;28;20406;-88
2023/01/10 05:23:47;;;;;;;84.80;33.30;;;;;;;10.78;88.19;100370.72;5120418;28;20034;-88
2023/01/10 05:26:16;;;;;;;77.93;31.95;;;;;;;10.86;87.82;100372.75;5121635;28;20091;-89
2023/01/10 05:28:42;;;;;;;69.45;30.40;;;;;;;10.93;88.30;100368.53;5115589;28;20055;-89
2023/01/10 05:31:15;;;;;;;69.45;30.73;;;;;;;10.96;87.43;100387.13;5119342;28;20062;-91
2023/01/10 05:33:45;;;;;;;67.00;29.15;;;;;;;10.98;87.18;100373.53;5128798;28;20030;-87
2023/01/10 05:36:10;;;;;;;66.00;28.83;;;;;;;11.03;87.18;100374.84;5110023;28;20056;-90
2023/01/10 05:38:36;;;;;;;79.05;32.38;;;;;;;11.11;86.61;100369.63;5129617;28;20023;-90
2023/01/10 05:41:01;;;;;;;65.32;30.33;;;;;;;11.25;86.27;100360.34;5129246;28;20032;-90
2023/01/10 05:43:27;;;;;;;67.63;30.40;;;;;;;11.31;85.68;100378.66;5129473;28;20031;-91
2023/01/10 05:45:53;;;;;;;74.95;30.85;;;;;;;11.39;84.68;100389.59;5118784;28;20101;-90
2023/01/10 05:48:19;;;;;;;90.38;32.85;;;;;;;11.32;83.82;100374.94;5118436;28;20103;-89
2023/01/10 05:50:44;;;;;;;80.15;29.45;;;;;;;11.40;83.32;100386.78;5095077;28;20131;-90
2023/01/10 05:53:10;;;;;;;66.32;28.42;;;;;;;11.31;82.91;100375.97;5077391;28;20112;-89
2023/01/10 05:55:35;;;;;;;82.10;30.42;;;;;;;11.33;82.50;100387.44;5094553;28;20046;-89
2023/01/10 05:58:01;;;;;;;87.80;27.98;;;;;;;11.28;82.89;100389.69;5094050;28;20043;-91
2023/01/10 06:00:27;;;;;;;69.18;27.63;;;;;;;11.24;82.92;100385.56;5094548;28;20047;-89
2023/01/10 06:02:56;;;;;;;70.15;27.55;;;;;;;11.33;82.61;100382.06;5094443;28;20084;-90
2023/01/10 06:05:22;;;;;;;68.03;28.23;;;;;;;11.28;82.60;100393.22;5077469;28;20048;-90
2023/01/10 06:07:48;;;;;;;74.38;26.08;;;;;;;11.15;82.15;100367.53;5078136;28;20487;-88
2023/01/10 06:10:14;;;;;;;72.53;27.02;;;;;;;11.12;82.32;100378.56;5094494;28;20040;-90
2023/01/10 06:12:40;;;;;;;67.75;25.95;;;;;;;11.12;82.23;100378.56;5094619;28;20067;-89
2023/01/10 06:15:07;;;;;;;75.25;28.80;;;;;;;11.13;82.41;100380.28;5093841;28;20060;-89
2023/01/10 06:17:32;;;;;;;65.07;25.85;;;;;;;11.21;81.73;100380.44;5073194;28;20040;-91
2023/01/10 06:19:58;;;;;;;66.28;27.10;;;;;;;11.15;81.65;100389.06;5073867;28;20059;-89
2023/01/10 06:22:25;;;;;;;65.22;26.65;;;;;;;11.29;81.39;100389.53;5075129;28;20036;-90
2023/01/10 06:24:50;;;;;;;56.55;24.25;;;;;;;11.18;80.57;100375.31;5074130;28;20049;-89
2023/01/10 06:27:16;;;;;;;84.57;25.17;;;;;;;11.30;80.78;100396.66;5073029;28;20418;-90
2023/01/10 06:29:41;;;;;;;52.00;23.67;;;;;;;11.26;80.15;100376.34;5056210;28;20029;-89
2023/01/10 06:32:07;;;;;;;63.47;25.17;;;;;;;11.36;79.36;100385.34;5073953;28;20109;-88
2023/01/10 06:34:32;;;;;;;60.97;23.88;;;;;;;11.41;78.81;100384.91;5075518;28;20035;-90
2023/01/10 06:36:58;;;;;;;65.63;24.05;;;;;;;11.38;79.50;100391.41;5056144;28;20036;-89
2023/01/10 06:39:23;;;;;;;59.13;24.67;;;;;;;11.30;79.56;100398.47;5073159;28;20111;-90
2023/01/10 06:41:48;;;;;;;50.08;24.38;;;;;;;11.15;78.81;100394.44;5073314;28;20028;-91
2023/01/10 06:44:14;;;;;;;67.32;24.15;;;;;;;11.19;79.24;100409.34;5073700;28;20051;-89
2023/01/10 06:46:39;;;;;;;53.33;24.15;;;;;;;11.14;79.48;100408.88;5072615;28;20029;-90
2023/01/10 06:49:05;;;;;;;60.97;24.95;;;;;;;11.10;79.70;100407.47;5104171;28;20184;-91
2023/01/10 06:51:30;;;;;;;63.13;25.63;;;;;;;10.99;80.04;100389.53;5115571;28;20083;-90
2023/01/10 06:53:56;;;;;;;60.40;26.60;;;;;;;11.02;80.10;100400.03;5118110;28;20083;-89
2023/01/10 06:56:21;;;;;;;70.32;27.17;;;;;;;11.02;81.22;100396.47;5115602;28;20402;-88
2023/01/10 06:58:48;;;;;;;76.53;26.52;;;;;;;11.03;81.40;100395.50;5098341;28;20028;-89
2023/01/10 07:01:16;;;;;;;61.75;26.45;;;;;;;11.05;81.45;100404.28;5097516;28;20035;-91
2023/01/10 07:03:42;;;;;;;67.82;26.40;;;;;;;11.03;82.88;100417.91;5097758;28;20027;-89
2023/01/10 07:06:11;;;;;;;63.80;27.80;;;;;;;11.05;83.57;100418.59;5115947;28;20026;-89
2023/01/10 07:08:39;;;;;;;74.50;28.02;;;;;;;11.05;83.70;100415.91;5097972;28;20031;-90
2023/01/10 07:11:05;;;;;;;57.50;24.98;;;;;;;11.08;83.64;100422.88;5115417;28;20019;-91
2023/01/10 07:13:30;;;;;;;72.22;28.08;;;;;;;11.11;84.16;100422.59;5116280;28;20472;-90
2023/01/10 07:16:08;;;;;;;71.00;26.05;;;;;;;11.16;84.52;100431.16;5115960;28;20019;-91
2023/01/10 07:18:34;;;;;;;65.30;27.77;;;;;;;11.14;84.37;100422.34;5114690;28;20027;-91
2023/01/10 07:21:00;;;;;;;73.25;27.85;;;;;;;11.10;83.79;100426.28;5115419;28;20057;-91
2023/01/10 07:23:25;;;;;;;60.17;27.75;;;;;;;11.02;83.94;100415.31;5097909;28;20084;-90
2023/01/10 07:25:51;;;;;;;69.00;27.63;;;;;;;11.05;84.35;100425.81;5115337;28;20494;-88
2023/01/10 07:28:17;;;;;;;61.17;27.55;;;;;;;11.05;83.78;100415.06;5115101;28;20049;-90
2023/01/10 07:30:43;;;;;;;67.00;29.70;;;;;;;11.03;84.19;100411.66;5080227;28;20062;-88
2023/01/10 07:33:09;;;;;;;69.28;27.65;;;;;;;11.11;83.75;100414.53;5100901;28;20035;-90
2023/01/10 07:35:34;;;;;;;70.70;27.70;;;;;;;11.03;84.26;100412.50;5119948;28;20055;-89
2023/01/10 07:38:02;;;;;;;52.25;26.35;;;;;;;10.93;84.01;100390.06;5097282;28;20028;-88
2023/01/10 07:40:27;;;;;;;71.18;27.92;;;;;;;11.08;84.53;100414.78;5097202;28;20024;-91
2023/01/10 07:43:00;;;;;;;70.28;28.80;;;;;;;11.17;84.66;100417.53;5116046;28;20031;-90
2023/01/10 07:45:27;;;;;;;63.55;26.63;;;;;;;11.21;84.99;100415.44;5099064;28;20049;-90
2023/01/10 07:47:56;;;;;;;69.55;31.20;;;;;;;11.24;84.31;100399.03;5115113;28;20110;-92
2023/01/10 07:50:21;;;;;;;64.25;28.20;;;;;;;11.25;84.20;100400.72;5115413;28;20031;-90
2023/01/10 07:52:46;;;;;;;64.22;25.95;;;;;;;11.25;84.65;100384.59;5114881;28;20483;-90
2023/01/10 07:55:12;;;;;;;62.15;27.13;;;;;;;11.39;83.59;100403.91;5097698;28;20038;-90
2023/01/10 07:57:37;;;;;;;70.35;27.55;;;;;;;11.35;83.64;100377.38;5115224;28;20024;-90
2023/01/10 08:00:03;;;;;;;66.25;29.10;;;;;;;11.40;84.26;100394.00;5114334;28;20039;-89
2023/01/10 08:02:28;;;;;;;68.97;29.73;;;;;;;11.43;83.58;100394.56;5114045;28;20023;-90
2023/01/10 08:04:54;;;;;;;76.35;26.92;;;;;;;11.39;83.80;100389.59;5096559;28;20611;-89
2023/01/10 08:07:19;;;;;;;62.35;28.15;;;;;;;11.43;82.58;100399.97;5116363;28;20049;-88
2023/01/10 08:09:44;;;;;;;67.70;25.67;;;;;;;11.48;81.09;100386.06;5122294;28;20035;-87
2023/01/10 08:12:10;;;;;;;68.03;27.40;;;;;;;11.54;80.71;100380.16;5103865;28;20110;-87
2023/01/10 08:14:35;;;;;;;61.90;25.00;;;;;;;11.54;79.77;100385.53;5106091;28;20123;-87
2023/01/10 08:17:01;;;;;;;63.80;24.13;;;;;;;11.39;79.36;100365.34;5096541;28;20165;-89
2023/01/10 08:19:26;;;;;;;62.92;25.65;;;;;;;11.48;79.54;100375.31;5114800;28;20053;-90
2023/01/10 08:21:53;;;;;;;57.80;24.85;;;;;;;11.54;79.08;100374.75;5114007;28;20110;-89
2023/01/10 08:24:19;;;;;;;58.75;25.30;;;;;;;11.58;79.02;100392.34;5114796;28;20036;-89
2023/01/10 08:26:44;;;;;;;58.53;25.13;;;;;;;11.49;79.06;100377.03;5114099;28;20019;-90
2023/01/10 08:29:10;;;;;;;72.90;26.55;;;;;;;11.46;79.58;100390.75;5115318;28;20032;-91
2023/01/10 08:31:35;;;;;;;57.67;24.98;;;;;;;11.55;80.11;100398.03;5098666;28;20031;-90
2023/01/10 08:34:00;;;;;;;56.75;26.15;;;;;;;11.54;80.95;100385.53;5098421;28;20035;-90
2023/01/10 08:36:28;;;;;;;76.90;28.63;;;;;;;11.42;81.58;100373.16;5097687;28;20042;-91
2023/01/10 08:38:56;;;;;;;60.88;25.33;;;;;;;11.54;81.44;100390.06;5116778;28;20035;-91
2023/01/10 08:41:21;;;;;;;67.55;26.83;;;;;;;11.52;81.06;100376.75;5115899;28;20012;-90
2023/01/10 08:43:51;;;;;;;56.45;26.02;;;;;;;11.58;80.50;100386.97;5116247;28;20451;-90
2023/01/10 08:46:18;;;;;;;67.53;27.58;;;;;;;11.68;80.14;100385.13;5116155;28;20459;-89
2023/01/10 08:48:44;;;;;;;67.72;26.20;;;;;;;11.52;79.62;100374.06;5117053;28;20024;-92
2023/01/10 08:51:09;;;;;;;64.38;26.33;;;;;;;11.60;80.01;100368.81;5117102;28;20077;-90
2023/01/10 08:53:37;;;;;;;52.60;25.13;;;;;;;11.67;78.48;100385.28;5116982;28;20046;-88
2023/01/10 08:56:03;;;;;;;60.70;26.90;;;;;;;11.63;79.03;100379.31;5116286;28;20043;-89
2023/01/10 08:58:28;;;;;;;63.67;25.92;;;;;;;11.67;79.25;100382.59;5114751;28;20084;-89
2023/01/10 09:00:53;;;;;;;62.97;26.83;;;;;;;11.62;78.74;100361.44;5114117;28;20053;-89
2023/01/10 09:03:19;;;;;;;68.90;26.33;;;;;;;11.75;78.93;100362.09;5097806;28;20049;-88
2023/01/10 09:05:44;;;;;;;63.13;26.90;;;;;;;11.89;78.40;100367.09;5096169;28;20035;-88
2023/01/10 09:08:11;;;;;;;57.63;25.95;;;;;;;11.87;78.27;100362.81;5115129;28;20545;-89
2023/01/10 09:10:36;;;;;;;59.13;25.92;;;;;;;12.00;78.63;100374.19;5114444;28;20031;-92
2023/01/10 09:13:03;;;;;;;74.28;27.25;;;;;;;12.20;78.38;100388.53;5121434;28;20022;-89
2023/01/10 09:15:35;;;;;;;75.60;28.13;;;;;;;12.20;78.62;100385.84;5123260;28;20132;-90
2023/01/10 09:18:05;;;;;;;53.28;24.52;;;;;;;12.23;79.18;100390.97;5098387;28;20114;-91
2023/01/10 09:20:34;;;;;;;57.22;26.00;;;;;;;12.22;78.76;100359.59;5115109;28;20036;-88
2023/01/10 09:23:08;;;;;;;49.13;25.58;;;;;;;12.43;79.55;100389.97;5115226;28;20031;-91
2023/01/10 09:25:34;;;;;;;54.97;27.75;;;;;;;12.57;79.55;100377.91;5096121;28;20524;-90
2023/01/10 09:28:01;;;;;;;63.55;25.02;;;;;;;12.59;78.86;100374.06;5096084;28;20016;-91
2023/01/10 09:30:28;;;;;;;76.70;27.02;;;;;;;12.71;78.57;100378.28;5096777;28;20035;-88
2023/01/10 09:32:55;;;;;;;60.60;25.33;;;;;;;12.78;77.87;100382.09;5133358;28;20030;-88
2023/01/10 09:35:21;;;;;;;72.93;29.77;;;;;;;12.76;77.85;100370.59;5133294;28;20096;-89
2023/01/10 09:37:47;;;;;;;81.55;28.08;;;;;;;12.80;77.63;100372.03;5133780;28;20084;-89
2023/01/10 09:40:16;;;;;;;71.88;27.30;;;;;;;12.90;77.21;100377.41;5134263;28;20028;-90
2023/01/10 09:42:48;;;;;;;57.42;24.20;;;;;;;13.04;76.06;100363.44;5114041;28;20031;-91
2023/01/10 09:45:17;;;;;;;;;;;;;;;12.99;75.56;100360.34;5116801;28;20028;-89
2023/01/10 09:48:00;;;;;;;50.78;22.38;;;;;;;12.97;75.61;100363.16;5099128;28;19891;-88
2023/01/10 09:50:43;;;;;;;48.90;23.50;;;;;;;12.90;75.19;100345.00;5115137;28;20525;-90
2023/01/10 09:53:21;;;;;;;63.92;25.30;;;;;;;12.78;75.53;100336.22;5113724;28;20451;-89
2023/01/10 09:55:56;;;;;;;50.42;23.48;;;;;;;12.98;74.47;100332.47;5095738;28;20035;-91
2023/01/10 09:58:27;;;;;;;52.47;22.13;;;;;;;12.97;74.67;100336.16;5116774;28;20449;-91
2023/01/10 10:00:57;;;;;;;49.70;21.98;;;;;;;13.01;74.36;100342.97;5115383;28;20599;-90
2023/01/10 10:03:35;;;;;;;64.00;23.85;;;;;;;13.01;73.97;100316.00;5113326;28;20043;-89
2023/01/10 10:06:02;;;;;;;53.45;23.05;;;;;;;13.27;73.71;100315.34;5114598;28;20043;-89
2023/01/10 10:08:28;;;;;;;50.67;21.60;;;;;;;13.32;73.50;100297.69;5115224;28;20030;-91
2023/01/10 10:11:05;;;;;;;46.55;20.13;;;;;;;13.49;72.89;100315.78;5115997;28;20088;-91
2023/01/10 10:13:54;;;;;;;57.10;21.30;;;;;;;13.57;72.87;100324.00;5114587;28;20135;-89
2023/01/10 10:16:47;;;;;;;55.95;20.13;;;;;;;13.40;73.00;100310.44;5096000;28;20114;-90
2023/01/10 10:19:18;;;;;;;49.45;20.77;;;;;;;13.33;72.65;100301.25;5115991;28;20020;-91
2023/01/10 10:21:56;;;;;;;43.33;20.58;;;;;;;13.26;72.79;100309.09;5113498;28;20027;-89
2023/01/10 10:24:50;;;;;;;63.00;20.95;;;;;;;13.35;72.98;100301.94;5098568;28;20032;-90
2023/01/10 10:27:30;;;;;;;42.88;21.13;;;;;;;13.29;72.34;100299.84;5117617;28;20031;-91
2023/01/10 10:30:07;;;;;;;73.68;21.83;;;;;;;13.10;72.94;100284.56;5117273;28;20479;-89
2023/01/10 10:32:46;;;;;;;53.38;22.25;;;;;;;13.13;73.26;100302.31;5116825;28;20034;-91
2023/01/10 10:35:12;;;;;;;42.58;20.45;;;;;;;13.17;73.11;100306.44;5117495;28;20051;-90
2023/01/10 10:37:47;;;;;;;46.63;19.92;;;;;;;13.15;73.21;100311.16;5117331;28;20027;-90
2023/01/10 10:40:12;;;;;;;46.45;20.48;;;;;;;13.12;73.68;100300.66;5116778;28;20032;-91
2023/01/10 10:42:42;;;;;;;46.17;19.92;;;;;;;13.05;73.08;100285.00;5117043;28;20398;-89
2023/01/10 10:45:39;;;;;;;55.65;19.55;;;;;;;13.09;73.04;100291.81;5116342;28;20028;-89
2023/01/10 10:48:13;;;;;;;50.55;20.13;;;;;;;12.84;72.79;100291.63;5116446;28;20516;-89
2023/01/10 10:50:49;;;;;;;57.13;21.25;;;;;;;12.90;73.02;100297.25;5115712;28;20035;-89
2023/01/10 10:53:15;;;;;;;62.63;17.98;;;;;;;12.77;73.63;100291.34;5116594;28;20035;-90
2023/01/10 10:55:40;;;;;;;46.05;19.60;;;;;;;12.76;73.75;100295.03;5116649;28;20020;-89
2023/01/10 10:58:06;;;;;;;49.08;18.05;;;;;;;12.76;73.59;100278.84;5116369;28;20161;-89
2023/01/10 11:00:33;;;;;;;41.88;18.38;;;;;;;12.91;73.24;100293.56;5097975;28;20494;-90
2023/01/10 11:03:32;;;;;;;50.33;18.90;;;;;;;12.90;73.04;100285.63;5117051;28;20027;-92
2023/01/10 11:05:59;;;;;;;59.30;18.83;;;;;;;13.14;72.75;100290.53;5117939;28;20407;-91
2023/01/10 11:08:27;;;;;;;56.17;19.10;;;;;;;13.27;72.03;100286.47;5118948;28;20027;-90
2023/01/10 11:10:55;;;;;;;42.40;18.05;;;;;;;13.34;71.15;100286.72;5117860;28;20024;-89
2023/01/10 11:13:33;;;;;;;56.70;19.75;;;;;;;13.31;70.84;100270.81;5083353;28;20034;-91
2023/01/10 11:16:00;;;;;;;45.33;18.05;;;;;;;13.26;70.75;100259.63;5117089;28;20097;-92
2023/01/10 11:18:31;;;;;;;43.92;18.27;;;;;;;13.27;70.93;100255.94;5120083;28;20047;-91
2023/01/10 11:21:08;;;;;;;60.75;18.85;;;;;;;13.36;71.01;100258.56;5118806;28;20582;-91
2023/01/10 11:23:42;;;;;;;64.70;18.13;;;;;;;13.42;70.72;100273.31;5114210;28;20058;-91
2023/01/10 11:26:26;;;;;;;63.17;20.05;;;;;;;13.29;70.23;100259.31;5099537;28;20031;-91